Portada
METAR-TAF:

METAR-TAF

Aeropuertos :

Belgrado, Serbia

Aeropuerto de Belgrado-Nikola Tesla

latitud: 44-49N, longitud: 020-17E, altitud: 96 m

Observación

El informe se hizo hace 20 minutos, a las 04:00 UTC
Viento 9 kt del sur-sureste
Temperatura 20°C
Humedad 43%
Presión 1009 hPa
Visibilidad 10 km o más
sin nubes por debajo de 1500 m y sin presencia de cumulonimbus.

METAR: LYBE 280400Z 15009KT CAVOK 20/07 Q1009 NOSIG

Hora: 06:20 (04:20 UTC)

Pronóstico

El informe se hizo hace 5 horas y 20 minutos, a las 23:00 UTC
Pronóstico válido del 28 a las 00 UTC al 28 a las 24 UTC
Viento 4 kt del oeste-suroeste
Visibilidad 10 km o más
sin nubes por debajo de 1500 m y sin presencia de cumulonimbus.
Evolucionando progresivamente
del 28 a las 06 UTC al 28 a las 08 UTC
Viento 14 kt del sureste

TAF: LYBE 272300Z 2800/2824 24004KT CAVOK TX27/2813Z TN14/2804Z BECMG 2806/2808 14014KT

Observaciones y pronósticos meteorológicos de más de 4000 aeropuertos (mensajes METAR y TAF).

Los puntos amarillos y rojos representan las estaciones disponibles.

Ponga el ratón en el punto deseado para ver el nombre de la estación.

Haga clic para ver las observaciones y los pronósticos meteorológicos.

Para cambiar el mapa : haga clic en los botones verdes con una cruz de color negro para hacer un zoom, en el botón verde con un guión para alejar o en las flechas verdes para mapas adyacentes.


METAR-TAF: